sensor_id;sensor_type;location;lat;lon;timestamp;P1;durP1;ratioP1;P2;durP2;ratioP2
15553;SDS011;7878;44.632;10.942;2022-10-16T00:00:44;28.60;;;21.73;;
15553;SDS011;7878;44.632;10.942;2022-10-16T00:03:10;30.50;;;20.38;;
15553;SDS011;7878;44.632;10.942;2022-10-16T00:05:40;27.17;;;20.80;;
15553;SDS011;7878;44.632;10.942;2022-10-16T00:08:08;30.63;;;20.83;;
15553;SDS011;7878;44.632;10.942;2022-10-16T00:10:36;30.88;;;19.77;;
15553;SDS011;7878;44.632;10.942;2022-10-16T00:13:02;27.95;;;20.80;;
15553;SDS011;7878;44.632;10.942;2022-10-16T00:15:28;26.60;;;20.80;;
15553;SDS011;7878;44.632;10.942;2022-10-16T00:17:54;30.73;;;21.92;;
15553;SDS011;7878;44.632;10.942;2022-10-16T00:20:20;26.85;;;20.50;;
15553;SDS011;7878;44.632;10.942;2022-10-16T00:22:45;31.80;;;21.38;;
15553;SDS011;7878;44.632;10.942;2022-10-16T00:25:11;26.92;;;19.95;;
15553;SDS011;7878;44.632;10.942;2022-10-16T00:27:37;31.58;;;21.60;;
15553;SDS011;7878;44.632;10.942;2022-10-16T00:30:02;29.05;;;20.13;;
15553;SDS011;7878;44.632;10.942;2022-10-16T00:32:29;29.58;;;20.90;;
15553;SDS011;7878;44.632;10.942;2022-10-16T00:34:54;30.25;;;19.95;;
15553;SDS011;7878;44.632;10.942;2022-10-16T00:37:20;23.33;;;19.60;;
15553;SDS011;7878;44.632;10.942;2022-10-16T00:39:46;24.52;;;19.30;;
15553;SDS011;7878;44.632;10.942;2022-10-16T00:42:16;27.52;;;18.75;;
15553;SDS011;7878;44.632;10.942;2022-10-16T00:44:53;24.75;;;18.23;;
15553;SDS011;7878;44.632;10.942;2022-10-16T00:47:34;23.05;;;17.80;;
15553;SDS011;7878;44.632;10.942;2022-10-16T00:50:09;25.88;;;18.30;;
15553;SDS011;7878;44.632;10.942;2022-10-16T00:52:56;22.02;;;19.35;;
15553;SDS011;7878;44.632;10.942;2022-10-16T00:55:23;23.45;;;18.70;;
15553;SDS011;7878;44.632;10.942;2022-10-16T00:57:49;25.60;;;19.33;;
15553;SDS011;7878;44.632;10.942;2022-10-16T01:00:20;25.13;;;17.88;;
15553;SDS011;7878;44.632;10.942;2022-10-16T01:02:56;22.17;;;17.95;;
15553;SDS011;7878;44.632;10.942;2022-10-16T01:05:24;27.55;;;19.00;;
15553;SDS011;7878;44.632;10.942;2022-10-16T01:08:18;27.10;;;19.02;;
15553;SDS011;7878;44.632;10.942;2022-10-16T01:10:55;25.45;;;18.98;;
15553;SDS011;7878;44.632;10.942;2022-10-16T01:13:32;25.48;;;19.00;;
15553;SDS011;7878;44.632;10.942;2022-10-16T01:16:21;23.95;;;18.60;;
15553;SDS011;7878;44.632;10.942;2022-10-16T01:19:00;22.83;;;19.08;;
15553;SDS011;7878;44.632;10.942;2022-10-16T01:21:40;30.35;;;18.88;;
15553;SDS011;7878;44.632;10.942;2022-10-16T01:27:14;23.15;;;18.70;;
15553;SDS011;7878;44.632;10.942;2022-10-16T01:30:17;28.02;;;18.60;;
15553;SDS011;7878;44.632;10.942;2022-10-16T01:32:45;22.88;;;17.15;;
15553;SDS011;7878;44.632;10.942;2022-10-16T01:35:23;23.42;;;17.55;;
15553;SDS011;7878;44.632;10.942;2022-10-16T01:40:33;21.02;;;16.30;;
15553;SDS011;7878;44.632;10.942;2022-10-16T01:45:33;21.65;;;16.80;;
15553;SDS011;7878;44.632;10.942;2022-10-16T01:48:01;23.88;;;17.90;;
15553;SDS011;7878;44.632;10.942;2022-10-16T01:50:30;24.73;;;16.33;;
15553;SDS011;7878;44.632;10.942;2022-10-16T01:52:59;20.92;;;17.08;;
15553;SDS011;7878;44.632;10.942;2022-10-16T01:55:32;23.13;;;16.60;;
15553;SDS011;7878;44.632;10.942;2022-10-16T01:58:01;21.75;;;17.77;;
15553;SDS011;7878;44.632;10.942;2022-10-16T02:00:30;21.63;;;17.98;;
15553;SDS011;7878;44.632;10.942;2022-10-16T02:02:56;21.90;;;17.30;;
15553;SDS011;7878;44.632;10.942;2022-10-16T02:07:53;27.23;;;19.13;;
15553;SDS011;7878;44.632;10.942;2022-10-16T02:10:19;25.33;;;18.23;;
15553;SDS011;7878;44.632;10.942;2022-10-16T02:12:48;27.70;;;17.48;;
15553;SDS011;7878;44.632;10.942;2022-10-16T02:15:26;23.92;;;17.92;;
15553;SDS011;7878;44.632;10.942;2022-10-16T02:17:52;30.88;;;18.02;;
15553;SDS011;7878;44.632;10.942;2022-10-16T02:20:18;26.77;;;18.70;;
15553;SDS011;7878;44.632;10.942;2022-10-16T02:22:50;23.48;;;19.17;;
15553;SDS011;7878;44.632;10.942;2022-10-16T02:25:26;27.70;;;19.33;;
15553;SDS011;7878;44.632;10.942;2022-10-16T02:27:59;26.67;;;18.70;;
15553;SDS011;7878;44.632;10.942;2022-10-16T02:30:45;28.27;;;19.42;;
15553;SDS011;7878;44.632;10.942;2022-10-16T02:33:15;24.67;;;20.15;;
15553;SDS011;7878;44.632;10.942;2022-10-16T02:35:43;23.85;;;17.92;;
15553;SDS011;7878;44.632;10.942;2022-10-16T02:38:11;23.17;;;19.20;;
15553;SDS011;7878;44.632;10.942;2022-10-16T02:40:39;27.05;;;19.20;;
15553;SDS011;7878;44.632;10.942;2022-10-16T02:43:06;26.40;;;18.80;;
15553;SDS011;7878;44.632;10.942;2022-10-16T02:45:32;28.02;;;18.77;;
15553;SDS011;7878;44.632;10.942;2022-10-16T02:47:58;23.63;;;19.20;;
15553;SDS011;7878;44.632;10.942;2022-10-16T02:50:24;27.85;;;19.20;;
15553;SDS011;7878;44.632;10.942;2022-10-16T02:52:50;21.73;;;18.67;;
15553;SDS011;7878;44.632;10.942;2022-10-16T02:55:16;27.52;;;20.73;;
15553;SDS011;7878;44.632;10.942;2022-10-16T02:57:42;31.45;;;20.25;;
15553;SDS011;7878;44.632;10.942;2022-10-16T03:00:12;30.33;;;19.75;;
15553;SDS011;7878;44.632;10.942;2022-10-16T03:02:39;27.63;;;21.85;;
15553;SDS011;7878;44.632;10.942;2022-10-16T03:05:05;35.63;;;25.80;;
15553;SDS011;7878;44.632;10.942;2022-10-16T03:07:31;35.95;;;25.85;;
15553;SDS011;7878;44.632;10.942;2022-10-16T03:09:57;32.40;;;24.90;;
15553;SDS011;7878;44.632;10.942;2022-10-16T03:12:25;32.08;;;24.83;;
15553;SDS011;7878;44.632;10.942;2022-10-16T03:14:57;31.45;;;24.10;;
15553;SDS011;7878;44.632;10.942;2022-10-16T03:17:23;30.88;;;24.42;;
15553;SDS011;7878;44.632;10.942;2022-10-16T03:19:49;34.78;;;26.85;;
15553;SDS011;7878;44.632;10.942;2022-10-16T03:22:15;28.48;;;22.67;;
15553;SDS011;7878;44.632;10.942;2022-10-16T03:24:41;33.70;;;24.35;;
15553;SDS011;7878;44.632;10.942;2022-10-16T03:27:06;34.55;;;24.27;;
15553;SDS011;7878;44.632;10.942;2022-10-16T03:29:32;29.27;;;23.67;;
15553;SDS011;7878;44.632;10.942;2022-10-16T03:31:58;30.73;;;22.67;;
15553;SDS011;7878;44.632;10.942;2022-10-16T03:34:24;28.60;;;22.23;;
15553;SDS011;7878;44.632;10.942;2022-10-16T03:36:50;30.08;;;23.73;;
15553;SDS011;7878;44.632;10.942;2022-10-16T03:39:16;29.23;;;24.08;;
15553;SDS011;7878;44.632;10.942;2022-10-16T03:41:42;37.92;;;26.85;;
15553;SDS011;7878;44.632;10.942;2022-10-16T03:44:08;37.78;;;26.85;;
15553;SDS011;7878;44.632;10.942;2022-10-16T03:46:33;33.92;;;26.55;;
15553;SDS011;7878;44.632;10.942;2022-10-16T03:48:59;34.47;;;24.45;;
15553;SDS011;7878;44.632;10.942;2022-10-16T03:51:25;36.58;;;26.63;;
15553;SDS011;7878;44.632;10.942;2022-10-16T03:53:50;31.80;;;26.70;;
15553;SDS011;7878;44.632;10.942;2022-10-16T03:56:16;34.40;;;26.38;;
15553;SDS011;7878;44.632;10.942;2022-10-16T03:58:42;33.28;;;26.17;;
15553;SDS011;7878;44.632;10.942;2022-10-16T04:01:07;35.55;;;27.23;;
15553;SDS011;7878;44.632;10.942;2022-10-16T04:03:33;34.15;;;26.10;;
15553;SDS011;7878;44.632;10.942;2022-10-16T04:05:59;34.90;;;27.00;;
15553;SDS011;7878;44.632;10.942;2022-10-16T04:08:24;31.40;;;25.27;;
15553;SDS011;7878;44.632;10.942;2022-10-16T04:10:50;33.83;;;26.10;;
15553;SDS011;7878;44.632;10.942;2022-10-16T04:13:16;32.53;;;26.65;;
15553;SDS011;7878;44.632;10.942;2022-10-16T04:15:42;32.88;;;26.38;;
15553;SDS011;7878;44.632;10.942;2022-10-16T04:18:09;38.85;;;25.92;;
15553;SDS011;7878;44.632;10.942;2022-10-16T04:20:34;31.58;;;24.00;;
15553;SDS011;7878;44.632;10.942;2022-10-16T04:23:00;33.78;;;24.38;;
15553;SDS011;7878;44.632;10.942;2022-10-16T04:25:26;35.58;;;25.98;;
15553;SDS011;7878;44.632;10.942;2022-10-16T04:27:55;32.95;;;25.83;;
15553;SDS011;7878;44.632;10.942;2022-10-16T04:30:21;28.88;;;25.17;;
15553;SDS011;7878;44.632;10.942;2022-10-16T04:32:51;30.52;;;23.73;;
15553;SDS011;7878;44.632;10.942;2022-10-16T04:35:18;32.05;;;23.33;;
15553;SDS011;7878;44.632;10.942;2022-10-16T04:37:44;33.47;;;23.52;;
15553;SDS011;7878;44.632;10.942;2022-10-16T04:40:10;29.95;;;23.38;;
15553;SDS011;7878;44.632;10.942;2022-10-16T04:42:36;31.30;;;24.17;;
15553;SDS011;7878;44.632;10.942;2022-10-16T04:45:02;31.92;;;24.70;;
15553;SDS011;7878;44.632;10.942;2022-10-16T04:47:29;27.67;;;23.60;;
15553;SDS011;7878;44.632;10.942;2022-10-16T04:49:55;30.08;;;24.00;;
15553;SDS011;7878;44.632;10.942;2022-10-16T04:52:21;27.02;;;21.70;;
15553;SDS011;7878;44.632;10.942;2022-10-16T04:54:49;28.90;;;21.85;;
15553;SDS011;7878;44.632;10.942;2022-10-16T04:57:15;25.75;;;22.25;;
15553;SDS011;7878;44.632;10.942;2022-10-16T04:59:42;25.35;;;21.83;;
15553;SDS011;7878;44.632;10.942;2022-10-16T05:02:07;28.88;;;23.13;;
15553;SDS011;7878;44.632;10.942;2022-10-16T05:04:33;27.20;;;22.48;;
15553;SDS011;7878;44.632;10.942;2022-10-16T05:06:59;25.85;;;21.23;;
15553;SDS011;7878;44.632;10.942;2022-10-16T05:09:24;25.98;;;22.30;;
15553;SDS011;7878;44.632;10.942;2022-10-16T05:11:50;29.60;;;21.67;;
15553;SDS011;7878;44.632;10.942;2022-10-16T05:14:16;31.35;;;20.98;;
15553;SDS011;7878;44.632;10.942;2022-10-16T05:16:42;26.88;;;21.02;;
15553;SDS011;7878;44.632;10.942;2022-10-16T05:19:07;29.55;;;20.38;;
15553;SDS011;7878;44.632;10.942;2022-10-16T05:21:33;29.10;;;21.40;;
15553;SDS011;7878;44.632;10.942;2022-10-16T05:23:59;25.10;;;20.17;;
15553;SDS011;7878;44.632;10.942;2022-10-16T05:26:24;30.67;;;21.20;;
15553;SDS011;7878;44.632;10.942;2022-10-16T05:28:50;28.55;;;20.48;;
15553;SDS011;7878;44.632;10.942;2022-10-16T05:31:16;25.95;;;19.75;;
15553;SDS011;7878;44.632;10.942;2022-10-16T05:33:41;29.15;;;20.35;;
15553;SDS011;7878;44.632;10.942;2022-10-16T05:36:09;30.45;;;21.48;;
15553;SDS011;7878;44.632;10.942;2022-10-16T05:38:35;25.20;;;21.20;;
15553;SDS011;7878;44.632;10.942;2022-10-16T05:41:02;28.17;;;20.48;;
15553;SDS011;7878;44.632;10.942;2022-10-16T05:43:28;29.35;;;22.42;;
15553;SDS011;7878;44.632;10.942;2022-10-16T05:45:55;27.77;;;21.17;;
15553;SDS011;7878;44.632;10.942;2022-10-16T05:48:32;26.30;;;20.90;;
15553;SDS011;7878;44.632;10.942;2022-10-16T05:53:24;29.77;;;21.40;;
15553;SDS011;7878;44.632;10.942;2022-10-16T05:55:52;25.08;;;21.13;;
15553;SDS011;7878;44.632;10.942;2022-10-16T05:58:18;30.42;;;21.45;;
15553;SDS011;7878;44.632;10.942;2022-10-16T06:00:44;28.02;;;20.30;;
15553;SDS011;7878;44.632;10.942;2022-10-16T06:03:17;23.35;;;19.95;;
15553;SDS011;7878;44.632;10.942;2022-10-16T06:05:42;26.58;;;20.77;;
15553;SDS011;7878;44.632;10.942;2022-10-16T06:08:08;27.02;;;19.80;;
15553;SDS011;7878;44.632;10.942;2022-10-16T06:10:34;28.08;;;21.67;;
15553;SDS011;7878;44.632;10.942;2022-10-16T06:13:00;27.00;;;21.58;;
15553;SDS011;7878;44.632;10.942;2022-10-16T06:15:25;33.30;;;22.30;;
15553;SDS011;7878;44.632;10.942;2022-10-16T06:17:51;25.52;;;21.33;;
15553;SDS011;7878;44.632;10.942;2022-10-16T06:20:17;27.05;;;21.90;;
15553;SDS011;7878;44.632;10.942;2022-10-16T06:22:42;31.52;;;20.23;;
15553;SDS011;7878;44.632;10.942;2022-10-16T06:25:08;30.67;;;21.98;;
15553;SDS011;7878;44.632;10.942;2022-10-16T06:27:33;23.33;;;20.02;;
15553;SDS011;7878;44.632;10.942;2022-10-16T06:29:59;25.88;;;20.60;;
15553;SDS011;7878;44.632;10.942;2022-10-16T06:32:25;31.40;;;20.27;;
15553;SDS011;7878;44.632;10.942;2022-10-16T06:34:52;26.00;;;20.05;;
15553;SDS011;7878;44.632;10.942;2022-10-16T06:37:18;25.85;;;20.17;;
15553;SDS011;7878;44.632;10.942;2022-10-16T06:39:43;29.92;;;19.98;;
15553;SDS011;7878;44.632;10.942;2022-10-16T06:42:09;27.95;;;18.92;;
15553;SDS011;7878;44.632;10.942;2022-10-16T06:44:35;24.85;;;18.90;;
15553;SDS011;7878;44.632;10.942;2022-10-16T06:47:00;22.65;;;16.75;;
15553;SDS011;7878;44.632;10.942;2022-10-16T06:49:26;24.75;;;17.05;;
15553;SDS011;7878;44.632;10.942;2022-10-16T06:51:53;20.45;;;15.50;;
15553;SDS011;7878;44.632;10.942;2022-10-16T06:54:19;17.67;;;15.15;;
15553;SDS011;7878;44.632;10.942;2022-10-16T06:56:44;21.15;;;15.82;;
15553;SDS011;7878;44.632;10.942;2022-10-16T06:59:10;22.77;;;16.85;;
15553;SDS011;7878;44.632;10.942;2022-10-16T07:01:36;28.55;;;18.67;;
15553;SDS011;7878;44.632;10.942;2022-10-16T07:04:02;25.98;;;18.88;;
15553;SDS011;7878;44.632;10.942;2022-10-16T07:06:30;25.05;;;20.50;;
15553;SDS011;7878;44.632;10.942;2022-10-16T07:08:56;29.15;;;20.80;;
15553;SDS011;7878;44.632;10.942;2022-10-16T07:11:23;31.55;;;21.92;;
15553;SDS011;7878;44.632;10.942;2022-10-16T07:13:49;39.83;;;25.63;;
15553;SDS011;7878;44.632;10.942;2022-10-16T07:16:16;37.60;;;29.20;;
15553;SDS011;7878;44.632;10.942;2022-10-16T07:18:44;39.13;;;28.27;;
15553;SDS011;7878;44.632;10.942;2022-10-16T07:21:12;41.75;;;28.88;;
15553;SDS011;7878;44.632;10.942;2022-10-16T07:23:39;32.90;;;27.65;;
15553;SDS011;7878;44.632;10.942;2022-10-16T07:26:06;43.38;;;30.15;;
15553;SDS011;7878;44.632;10.942;2022-10-16T07:28:32;42.67;;;29.77;;
15553;SDS011;7878;44.632;10.942;2022-10-16T07:31:06;44.30;;;31.60;;
15553;SDS011;7878;44.632;10.942;2022-10-16T07:33:33;42.17;;;32.58;;
15553;SDS011;7878;44.632;10.942;2022-10-16T07:36:00;48.17;;;32.22;;
15553;SDS011;7878;44.632;10.942;2022-10-16T07:38:25;44.25;;;31.90;;
15553;SDS011;7878;44.632;10.942;2022-10-16T07:41:24;45.50;;;32.05;;
15553;SDS011;7878;44.632;10.942;2022-10-16T07:43:47;39.25;;;29.00;;
15553;SDS011;7878;44.632;10.942;2022-10-16T07:46:15;39.03;;;29.80;;
15553;SDS011;7878;44.632;10.942;2022-10-16T07:48:41;42.70;;;29.45;;
15553;SDS011;7878;44.632;10.942;2022-10-16T07:51:11;41.08;;;29.50;;
15553;SDS011;7878;44.632;10.942;2022-10-16T07:53:37;37.33;;;28.65;;
15553;SDS011;7878;44.632;10.942;2022-10-16T07:56:04;34.47;;;25.60;;
15553;SDS011;7878;44.632;10.942;2022-10-16T07:58:31;37.17;;;27.08;;
15553;SDS011;7878;44.632;10.942;2022-10-16T08:00:58;33.83;;;27.25;;
15553;SDS011;7878;44.632;10.942;2022-10-16T08:03:27;31.50;;;25.90;;
15553;SDS011;7878;44.632;10.942;2022-10-16T08:05:53;34.03;;;26.15;;
15553;SDS011;7878;44.632;10.942;2022-10-16T08:08:19;33.90;;;24.85;;
15553;SDS011;7878;44.632;10.942;2022-10-16T08:10:45;32.22;;;23.90;;
15553;SDS011;7878;44.632;10.942;2022-10-16T08:13:11;30.92;;;24.23;;
15553;SDS011;7878;44.632;10.942;2022-10-16T08:15:39;32.70;;;23.88;;
15553;SDS011;7878;44.632;10.942;2022-10-16T08:18:06;27.65;;;22.02;;
15553;SDS011;7878;44.632;10.942;2022-10-16T08:20:32;35.08;;;23.70;;
15553;SDS011;7878;44.632;10.942;2022-10-16T08:22:58;30.08;;;23.30;;
15553;SDS011;7878;44.632;10.942;2022-10-16T08:25:24;30.80;;;23.08;;
15553;SDS011;7878;44.632;10.942;2022-10-16T08:27:51;32.53;;;22.83;;
15553;SDS011;7878;44.632;10.942;2022-10-16T08:30:17;30.35;;;22.75;;
15553;SDS011;7878;44.632;10.942;2022-10-16T08:32:44;34.10;;;22.90;;
15553;SDS011;7878;44.632;10.942;2022-10-16T08:35:10;29.48;;;23.30;;
15553;SDS011;7878;44.632;10.942;2022-10-16T08:37:37;32.33;;;24.65;;
15553;SDS011;7878;44.632;10.942;2022-10-16T08:40:04;32.05;;;25.70;;
15553;SDS011;7878;44.632;10.942;2022-10-16T08:50:28;40.17;;;27.48;;
15553;SDS011;7878;44.632;10.942;2022-10-16T08:52:56;37.50;;;28.35;;
15553;SDS011;7878;44.632;10.942;2022-10-16T08:55:30;38.17;;;27.40;;
15553;SDS011;7878;44.632;10.942;2022-10-16T08:58:10;40.60;;;27.90;;
15553;SDS011;7878;44.632;10.942;2022-10-16T09:00:41;43.00;;;26.88;;
15553;SDS011;7878;44.632;10.942;2022-10-16T09:03:24;40.35;;;29.42;;
15553;SDS011;7878;44.632;10.942;2022-10-16T09:11:54;33.20;;;27.38;;
15553;SDS011;7878;44.632;10.942;2022-10-16T09:16:58;35.70;;;29.10;;
15553;SDS011;7878;44.632;10.942;2022-10-16T09:19:41;38.45;;;28.27;;
15553;SDS011;7878;44.632;10.942;2022-10-16T09:22:30;40.70;;;29.85;;
15553;SDS011;7878;44.632;10.942;2022-10-16T09:24:59;41.65;;;30.98;;
15553;SDS011;7878;44.632;10.942;2022-10-16T09:27:30;37.35;;;28.83;;
15553;SDS011;7878;44.632;10.942;2022-10-16T09:29:56;42.22;;;28.48;;
15553;SDS011;7878;44.632;10.942;2022-10-16T09:32:21;40.72;;;27.73;;
15553;SDS011;7878;44.632;10.942;2022-10-16T09:34:52;35.88;;;28.42;;
15553;SDS011;7878;44.632;10.942;2022-10-16T09:37:21;40.85;;;29.10;;
15553;SDS011;7878;44.632;10.942;2022-10-16T09:39:50;38.80;;;28.25;;
15553;SDS011;7878;44.632;10.942;2022-10-16T09:42:20;37.17;;;28.50;;
15553;SDS011;7878;44.632;10.942;2022-10-16T09:44:55;36.80;;;27.15;;
15553;SDS011;7878;44.632;10.942;2022-10-16T09:47:28;33.97;;;27.60;;
15553;SDS011;7878;44.632;10.942;2022-10-16T09:49:57;38.47;;;27.95;;
15553;SDS011;7878;44.632;10.942;2022-10-16T09:52:24;40.53;;;28.30;;
15553;SDS011;7878;44.632;10.942;2022-10-16T09:54:54;40.58;;;28.02;;
15553;SDS011;7878;44.632;10.942;2022-10-16T09:57:22;38.97;;;29.00;;
15553;SDS011;7878;44.632;10.942;2022-10-16T09:59:49;37.30;;;29.63;;
15553;SDS011;7878;44.632;10.942;2022-10-16T10:02:29;35.30;;;28.83;;
15553;SDS011;7878;44.632;10.942;2022-10-16T10:04:58;33.22;;;27.58;;
15553;SDS011;7878;44.632;10.942;2022-10-16T10:07:25;31.63;;;27.17;;
15553;SDS011;7878;44.632;10.942;2022-10-16T10:09:53;36.85;;;29.00;;
15553;SDS011;7878;44.632;10.942;2022-10-16T10:12:24;34.88;;;27.95;;
15553;SDS011;7878;44.632;10.942;2022-10-16T10:14:53;36.45;;;27.75;;
15553;SDS011;7878;44.632;10.942;2022-10-16T10:27:29;23.20;;;19.38;;
15553;SDS011;7878;44.632;10.942;2022-10-16T10:30:07;34.83;;;27.60;;
15553;SDS011;7878;44.632;10.942;2022-10-16T10:32:43;24.02;;;19.85;;
15553;SDS011;7878;44.632;10.942;2022-10-16T10:35:16;19.52;;;16.08;;
15553;SDS011;7878;44.632;10.942;2022-10-16T10:38:10;32.90;;;25.50;;
15553;SDS011;7878;44.632;10.942;2022-10-16T10:40:53;21.63;;;18.45;;
15553;SDS011;7878;44.632;10.942;2022-10-16T10:46:10;23.27;;;17.75;;
15553;SDS011;7878;44.632;10.942;2022-10-16T10:51:20;25.95;;;22.13;;
15553;SDS011;7878;44.632;10.942;2022-10-16T10:54:11;28.00;;;21.70;;
15553;SDS011;7878;44.632;10.942;2022-10-16T11:05:44;22.25;;;16.45;;
15553;SDS011;7878;44.632;10.942;2022-10-16T11:08:19;21.85;;;16.95;;
15553;SDS011;7878;44.632;10.942;2022-10-16T11:11:04;21.05;;;15.65;;
15553;SDS011;7878;44.632;10.942;2022-10-16T11:13:47;14.68;;;11.98;;
15553;SDS011;7878;44.632;10.942;2022-10-16T11:16:30;21.17;;;17.10;;
15553;SDS011;7878;44.632;10.942;2022-10-16T11:21:46;16.40;;;13.90;;
15553;SDS011;7878;44.632;10.942;2022-10-16T11:27:40;16.30;;;13.35;;
15553;SDS011;7878;44.632;10.942;2022-10-16T11:30:16;12.35;;;11.07;;
15553;SDS011;7878;44.632;10.942;2022-10-16T11:41:24;11.90;;;10.27;;
15553;SDS011;7878;44.632;10.942;2022-10-16T11:44:09;16.15;;;13.45;;
15553;SDS011;7878;44.632;10.942;2022-10-16T11:49:27;17.42;;;13.55;;
15553;SDS011;7878;44.632;10.942;2022-10-16T11:52:44;14.82;;;12.30;;
15553;SDS011;7878;44.632;10.942;2022-10-16T11:57:40;18.95;;;14.35;;
15553;SDS011;7878;44.632;10.942;2022-10-16T12:03:28;17.50;;;13.13;;
15553;SDS011;7878;44.632;10.942;2022-10-16T12:06:23;16.48;;;12.40;;
15553;SDS011;7878;44.632;10.942;2022-10-16T12:09:03;16.77;;;13.50;;
15553;SDS011;7878;44.632;10.942;2022-10-16T12:14:59;14.70;;;11.27;;
15553;SDS011;7878;44.632;10.942;2022-10-16T12:16:53;13.30;;;11.52;;
15553;SDS011;7878;44.632;10.942;2022-10-16T12:19:30;14.73;;;8.73;;
15553;SDS011;7878;44.632;10.942;2022-10-16T12:21:57;12.45;;;10.95;;
15553;SDS011;7878;44.632;10.942;2022-10-16T12:27:22;15.35;;;10.50;;
15553;SDS011;7878;44.632;10.942;2022-10-16T12:29:54;12.40;;;10.00;;
15553;SDS011;7878;44.632;10.942;2022-10-16T12:32:37;10.27;;;8.60;;
15553;SDS011;7878;44.632;10.942;2022-10-16T12:35:05;10.32;;;9.30;;
15553;SDS011;7878;44.632;10.942;2022-10-16T12:37:42;12.00;;;8.35;;
15553;SDS011;7878;44.632;10.942;2022-10-16T12:40:25;11.90;;;8.90;;
15553;SDS011;7878;44.632;10.942;2022-10-16T12:42:52;11.52;;;10.32;;
15553;SDS011;7878;44.632;10.942;2022-10-16T12:45:30;12.68;;;9.70;;
15553;SDS011;7878;44.632;10.942;2022-10-16T12:47:59;15.25;;;10.48;;
15553;SDS011;7878;44.632;10.942;2022-10-16T12:50:29;14.38;;;10.38;;
15553;SDS011;7878;44.632;10.942;2022-10-16T12:52:59;11.85;;;8.43;;
15553;SDS011;7878;44.632;10.942;2022-10-16T12:55:25;13.82;;;10.88;;
15553;SDS011;7878;44.632;10.942;2022-10-16T13:01:02;14.90;;;8.88;;
15553;SDS011;7878;44.632;10.942;2022-10-16T13:09:49;11.68;;;8.18;;
15553;SDS011;7878;44.632;10.942;2022-10-16T13:12:07;8.00;;;6.78;;
15553;SDS011;7878;44.632;10.942;2022-10-16T13:32:47;13.88;;;8.45;;
15553;SDS011;7878;44.632;10.942;2022-10-16T13:35:34;12.15;;;9.95;;
15553;SDS011;7878;44.632;10.942;2022-10-16T13:38:04;11.85;;;9.65;;
15553;SDS011;7878;44.632;10.942;2022-10-16T13:40:36;12.40;;;9.13;;
15553;SDS011;7878;44.632;10.942;2022-10-16T13:43:12;12.98;;;8.48;;
15553;SDS011;7878;44.632;10.942;2022-10-16T13:45:38;12.43;;;8.98;;
15553;SDS011;7878;44.632;10.942;2022-10-16T13:48:04;12.55;;;8.63;;
15553;SDS011;7878;44.632;10.942;2022-10-16T13:50:34;13.88;;;7.68;;
15553;SDS011;7878;44.632;10.942;2022-10-16T13:53:07;13.48;;;7.72;;
15553;SDS011;7878;44.632;10.942;2022-10-16T13:55:38;12.27;;;7.85;;
15553;SDS011;7878;44.632;10.942;2022-10-16T13:58:05;12.50;;;8.75;;
15553;SDS011;7878;44.632;10.942;2022-10-16T14:00:37;13.65;;;8.85;;
15553;SDS011;7878;44.632;10.942;2022-10-16T14:03:04;11.38;;;8.45;;
15553;SDS011;7878;44.632;10.942;2022-10-16T14:05:33;12.10;;;9.55;;
15553;SDS011;7878;44.632;10.942;2022-10-16T14:07:59;11.73;;;9.55;;
15553;SDS011;7878;44.632;10.942;2022-10-16T14:10:32;13.60;;;9.60;;
15553;SDS011;7878;44.632;10.942;2022-10-16T14:12:59;30.35;;;10.90;;
15553;SDS011;7878;44.632;10.942;2022-10-16T14:15:30;15.05;;;10.98;;
15553;SDS011;7878;44.632;10.942;2022-10-16T14:17:58;15.43;;;11.15;;
15553;SDS011;7878;44.632;10.942;2022-10-16T14:20:26;15.95;;;9.93;;
15553;SDS011;7878;44.632;10.942;2022-10-16T14:23:04;13.68;;;9.27;;
15553;SDS011;7878;44.632;10.942;2022-10-16T14:25:44;15.02;;;10.77;;
15553;SDS011;7878;44.632;10.942;2022-10-16T14:30:48;12.68;;;10.52;;
15553;SDS011;7878;44.632;10.942;2022-10-16T14:38:35;17.17;;;14.05;;
15553;SDS011;7878;44.632;10.942;2022-10-16T14:41:02;18.70;;;13.13;;
15553;SDS011;7878;44.632;10.942;2022-10-16T14:43:36;16.30;;;11.48;;
15553;SDS011;7878;44.632;10.942;2022-10-16T14:46:06;16.20;;;11.27;;
15553;SDS011;7878;44.632;10.942;2022-10-16T14:48:43;16.73;;;10.88;;
15553;SDS011;7878;44.632;10.942;2022-10-16T14:51:14;14.93;;;10.55;;
15553;SDS011;7878;44.632;10.942;2022-10-16T14:53:41;17.63;;;10.88;;
15553;SDS011;7878;44.632;10.942;2022-10-16T14:56:08;15.88;;;10.27;;
15553;SDS011;7878;44.632;10.942;2022-10-16T14:58:39;15.80;;;10.18;;
15553;SDS011;7878;44.632;10.942;2022-10-16T15:01:05;11.25;;;9.45;;
15553;SDS011;7878;44.632;10.942;2022-10-16T15:03:33;11.02;;;8.90;;
15553;SDS011;7878;44.632;10.942;2022-10-16T15:05:59;12.55;;;8.20;;
15553;SDS011;7878;44.632;10.942;2022-10-16T15:08:24;16.48;;;9.70;;
15553;SDS011;7878;44.632;10.942;2022-10-16T15:10:50;10.35;;;8.38;;
15553;SDS011;7878;44.632;10.942;2022-10-16T15:13:16;12.50;;;8.95;;
15553;SDS011;7878;44.632;10.942;2022-10-16T15:15:42;9.82;;;8.43;;
15553;SDS011;7878;44.632;10.942;2022-10-16T15:18:09;11.95;;;8.45;;
15553;SDS011;7878;44.632;10.942;2022-10-16T15:20:37;21.20;;;8.60;;
15553;SDS011;7878;44.632;10.942;2022-10-16T15:23:04;10.50;;;8.23;;
15553;SDS011;7878;44.632;10.942;2022-10-16T15:28:08;11.85;;;9.40;;
15553;SDS011;7878;44.632;10.942;2022-10-16T15:30:35;10.02;;;8.30;;
15553;SDS011;7878;44.632;10.942;2022-10-16T15:33:02;15.68;;;10.68;;
15553;SDS011;7878;44.632;10.942;2022-10-16T15:35:28;12.98;;;11.43;;
15553;SDS011;7878;44.632;10.942;2022-10-16T15:37:54;18.95;;;13.65;;
15553;SDS011;7878;44.632;10.942;2022-10-16T15:40:20;19.10;;;13.07;;
15553;SDS011;7878;44.632;10.942;2022-10-16T15:42:47;16.85;;;13.05;;
15553;SDS011;7878;44.632;10.942;2022-10-16T15:45:14;14.57;;;12.50;;
15553;SDS011;7878;44.632;10.942;2022-10-16T15:47:40;16.20;;;12.80;;
15553;SDS011;7878;44.632;10.942;2022-10-16T15:50:09;16.10;;;12.25;;
15553;SDS011;7878;44.632;10.942;2022-10-16T15:52:36;17.85;;;12.25;;
15553;SDS011;7878;44.632;10.942;2022-10-16T15:55:04;16.65;;;12.05;;
15553;SDS011;7878;44.632;10.942;2022-10-16T15:57:34;16.13;;;8.20;;
15553;SDS011;7878;44.632;10.942;2022-10-16T16:00:03;13.32;;;8.63;;
15553;SDS011;7878;44.632;10.942;2022-10-16T16:02:33;17.70;;;11.38;;
15553;SDS011;7878;44.632;10.942;2022-10-16T16:04:58;14.32;;;11.18;;
15553;SDS011;7878;44.632;10.942;2022-10-16T16:07:24;12.05;;;10.00;;
15553;SDS011;7878;44.632;10.942;2022-10-16T16:09:50;10.48;;;8.50;;
15553;SDS011;7878;44.632;10.942;2022-10-16T16:12:15;13.02;;;10.20;;
15553;SDS011;7878;44.632;10.942;2022-10-16T16:14:41;17.77;;;10.70;;
15553;SDS011;7878;44.632;10.942;2022-10-16T16:17:08;9.75;;;7.03;;
15553;SDS011;7878;44.632;10.942;2022-10-16T16:19:34;12.65;;;9.90;;
15553;SDS011;7878;44.632;10.942;2022-10-16T16:21:59;16.98;;;10.93;;
15553;SDS011;7878;44.632;10.942;2022-10-16T16:24:25;16.95;;;10.57;;
15553;SDS011;7878;44.632;10.942;2022-10-16T16:26:51;10.73;;;7.72;;
15553;SDS011;7878;44.632;10.942;2022-10-16T16:29:17;19.08;;;9.82;;
15553;SDS011;7878;44.632;10.942;2022-10-16T16:31:42;13.65;;;10.10;;
15553;SDS011;7878;44.632;10.942;2022-10-16T16:34:09;15.00;;;11.13;;
15553;SDS011;7878;44.632;10.942;2022-10-16T16:36:35;14.85;;;10.77;;